»·PEaware :: N351CB KLAX-KSAN

N351CB :: KLAX-KSAN

FLIGHT INFORMATION

Flight Status: Arrived
Operator: Privately registered:
United States
More flights under this callsign
Pilot: Andrew K. (26905)
Aircraft: BEECH AIRCRAFT SUPER KING AIR 350
(B350)
More flights by this aircraft type
Origin: KLAX Los Angeles Intl
United States
Destination: KSAN San Diego Intl-Lindbergh
United States
More flights between these airports :: More routes between these airports
Route: +SLI8 SLI SLI171 ALBAS V25 PACIF V208 LAX118 CARDI MZB320 MZB
File this flight plan on PilotEdge
Remarks:
Altitude:
(Current/Filed)
9,000ft
Speed:
(Current/Filed)
175kts
Departed: 08-Jan-20 05:33 PM
Arrived: 08-Jan-20 06:18 PM
Distance/Time
Traveled:
95nm/0:44
Distance/Time
To Go:
Arrived

Flight Plot

Page will automatically refresh every two minutes.


Map Options




Map Legend


Flown Route
Filed Route
Departure Airport
Arrival Airport
Navaid (VOR, NDB)
Fix

Horizontal Profiles

Position Reports

Time Latitude Longitude Heading Altitude Ground
Speed
08-Jan-20 16:59 33.934115 -118.395292 175 110ft 0kts
08-Jan-20 17:00 33.934115 -118.395292 175 110ft 0kts
08-Jan-20 17:01 33.934115 -118.395292 175 110ft 0kts
08-Jan-20 17:02 33.934115 -118.395292 175 110ft 0kts
08-Jan-20 17:03 33.934115 -118.395292 175 110ft 0kts
08-Jan-20 17:04 33.934115 -118.395292 175 110ft 0kts
08-Jan-20 17:05 33.934115 -118.395292 175 110ft 0kts
08-Jan-20 17:06 33.934115 -118.395292 175 110ft 0kts
08-Jan-20 17:07 33.934115 -118.395292 175 110ft 0kts
08-Jan-20 17:08 33.934115 -118.395292 175 110ft 0kts
08-Jan-20 17:09 33.934115 -118.395292 175 110ft 0kts
08-Jan-20 17:10 33.934115 -118.395292 175 110ft 0kts
08-Jan-20 17:11 33.934115 -118.395292 175 110ft 0kts
08-Jan-20 17:12 33.934115 -118.395292 175 110ft 0kts
08-Jan-20 17:13 33.934115 -118.395292 175 110ft 0kts
08-Jan-20 17:14 33.934115 -118.395292 175 110ft 0kts
08-Jan-20 17:15 33.934115 -118.395292 175 110ft 0kts
08-Jan-20 17:16 33.934115 -118.395292 175 110ft 0kts
08-Jan-20 17:17 33.934115 -118.395292 175 110ft 0kts
08-Jan-20 17:18 33.934115 -118.395292 175 110ft 0kts
08-Jan-20 17:19 33.934115 -118.395292 175 110ft 0kts
08-Jan-20 17:20 33.934115 -118.395292 175 110ft 0kts
08-Jan-20 17:21 33.934115 -118.395292 175 110ft 0kts
08-Jan-20 17:22 33.934115 -118.395292 175 110ft 0kts
08-Jan-20 17:23 33.934115 -118.395292 175 110ft 0kts
08-Jan-20 17:24 33.934115 -118.395292 175 110ft 0kts
08-Jan-20 17:25 33.934115 -118.395292 175 110ft 0kts
08-Jan-20 17:26 33.934077 -118.394484 51 109ft 0kts
08-Jan-20 17:27 33.934077 -118.394484 51 109ft 0kts
08-Jan-20 17:28 33.934077 -118.394484 51 109ft 0kts
08-Jan-20 17:29 33.935540 -118.388486 77 104ft 25kts
08-Jan-20 17:30 33.936343 -118.382809 26 101ft 0kts
08-Jan-20 17:31 33.937241 -118.383760 262 101ft 0kts
08-Jan-20 17:32 33.932425 -118.418323 257 1184ft 142kts
08-Jan-20 17:33 33.921569 -118.471831 256 2206ft 172kts
08-Jan-20 17:34 33.907614 -118.526017 218 3074ft 171kts
08-Jan-20 17:35 33.859599 -118.532081 182 4058ft 182kts
08-Jan-20 17:36 33.818776 -118.531787 182 4775ft 191kts
08-Jan-20 17:37 33.764977 -118.529468 182 5667ft 194kts
08-Jan-20 17:38 33.732858 -118.493322 72 6569ft 202kts
08-Jan-20 17:39 33.748601 -118.427132 72 7481ft 209kts
08-Jan-20 17:40 33.734890 -118.360169 110 8382ft 211kts
08-Jan-20 17:41 33.713823 -118.293236 112 9015ft 224kts
08-Jan-20 17:42 33.685428 -118.222620 118 8996ft 244kts
08-Jan-20 17:43 33.651499 -118.151657 124 8996ft 247kts
08-Jan-20 17:44 33.611987 -118.084433 139 9002ft 244kts
08-Jan-20 17:45 33.563301 -118.027539 139 8989ft 245kts
08-Jan-20 17:46 33.514051 -117.970604 140 8990ft 245kts
08-Jan-20 17:47 33.465449 -117.917568 141 8990ft 246kts
08-Jan-20 17:48 33.414697 -117.862373 140 8992ft 246kts
08-Jan-20 17:49 33.363316 -117.807950 140 9000ft 247kts
08-Jan-20 17:50 33.310734 -117.754448 140 9007ft 249kts
08-Jan-20 17:51 33.275567 -117.688465 141 9035ft 246kts
08-Jan-20 17:52 33.257095 -117.616971 82 9010ft 243kts
08-Jan-20 17:53 33.263508 -117.535084 81 9011ft 251kts
08-Jan-20 17:54 33.270508 -117.451011 82 8991ft 257kts
08-Jan-20 17:55 33.246230 -117.385043 185 8980ft 239kts
08-Jan-20 17:56 33.183120 -117.405774 200 8970ft 237kts
08-Jan-20 17:57 33.119392 -117.400842 158 8977ft 249kts
08-Jan-20 17:58 33.055783 -117.367477 160 8966ft 249kts
08-Jan-20 17:59 32.992495 -117.334533 162 8961ft 247kts
08-Jan-20 18:00 32.939211 -117.287771 112 8640ft 249kts
08-Jan-20 18:01 32.918297 -117.212906 111 7896ft 231kts
08-Jan-20 18:02 32.898618 -117.141132 111 7172ft 224kts
08-Jan-20 18:03 32.879715 -117.071128 111 6476ft 220kts
08-Jan-20 18:04 32.861781 -117.003112 111 5692ft 211kts
08-Jan-20 18:05 32.845197 -116.939021 111 4958ft 186kts
08-Jan-20 18:06 32.813515 -116.887248 161 5012ft 219kts
08-Jan-20 18:07 32.755558 -116.857880 161 4984ft 232kts
08-Jan-20 18:08 32.695369 -116.856992 201 4423ft 224kts
08-Jan-20 18:09 32.670768 -116.870012 236 3917ft 188kts
08-Jan-20 18:10 32.661553 -116.914487 257 3924ft 105kts
08-Jan-20 18:11 32.676352 -116.958509 286 4058ft 178kts
08-Jan-20 18:12 32.690540 -117.013014 283 3239ft 164kts
08-Jan-20 18:14 32.702346 -117.061305 283 2452ft 150kts
08-Jan-20 18:15 32.714736 -117.110387 285 1595ft 144kts
08-Jan-20 18:16 32.723777 -117.149897 283 757ft 115kts
08-Jan-20 18:17 32.732604 -117.185355 283 18ft 89kts
08-Jan-20 18:18 32.734591 -117.190796 27 18ft 0kts
08-Jan-20 18:19 32.734699 -117.190709 42 18ft 0kts
08-Jan-20 18:20 32.734699 -117.190709 42 18ft 0kts

Navigation Log

Ident Type
Flight plan parsing failed, navigation log unavailable